createdAt,value
2018-05-01T00:00:43.908Z,94837
2018-05-01T00:03:12.016Z,94829
2018-05-01T00:05:40.110Z,94826
2018-05-01T00:08:08.218Z,94815
2018-05-01T00:10:36.347Z,94812
2018-05-01T00:13:04.468Z,94799
2018-05-01T00:15:32.566Z,94808
2018-05-01T00:18:00.708Z,94823
2018-05-01T00:20:28.828Z,94818
2018-05-01T00:22:56.923Z,94817
2018-05-01T00:25:25.390Z,94824
2018-05-01T00:27:53.520Z,94824
2018-05-01T00:30:21.637Z,94832
2018-05-01T00:32:49.752Z,94833
2018-05-01T00:35:17.852Z,94827
2018-05-01T00:37:45.938Z,94830
2018-05-01T00:40:14.057Z,94835
2018-05-01T00:42:42.216Z,94830
2018-05-01T00:45:10.473Z,94835
2018-05-01T00:47:38.841Z,94829
2018-05-01T00:50:07.248Z,94821
2018-05-01T00:52:45.905Z,94825
2018-05-01T00:55:14.012Z,94832
2018-05-01T00:57:42.135Z,94830
2018-05-01T01:00:10.232Z,94819
2018-05-01T01:02:38.333Z,94813
2018-05-01T01:05:06.432Z,94818
2018-05-01T01:07:35.376Z,94816
2018-05-01T01:10:03.491Z,94805
2018-05-01T01:12:31.610Z,94803
2018-05-01T01:15:00.332Z,94808
2018-05-01T01:17:28.503Z,94805
2018-05-01T01:19:56.677Z,94810
2018-05-01T01:22:24.826Z,94809
2018-05-01T01:24:52.929Z,94808
2018-05-01T01:27:21.044Z,94802
2018-05-01T01:29:49.135Z,94810
2018-05-01T01:32:17.242Z,94822
2018-05-01T01:34:45.332Z,94811
2018-05-01T01:37:12.688Z,94824
2018-05-01T01:39:40.049Z,94827
2018-05-01T01:42:07.404Z,94821
2018-05-01T01:44:35.573Z,94826
2018-05-01T01:47:02.959Z,94825
2018-05-01T01:49:30.323Z,94828
2018-05-01T01:51:58.003Z,94812
2018-05-01T01:54:25.381Z,94820
2018-05-01T01:56:52.745Z,94823
2018-05-01T01:59:20.105Z,94823
2018-05-01T02:01:47.453Z,94817
2018-05-01T02:04:14.817Z,94815
2018-05-01T02:06:42.827Z,94824
2018-05-01T02:09:10.187Z,94815
2018-05-01T02:11:37.554Z,94811
2018-05-01T02:14:04.952Z,94824
2018-05-01T02:16:32.305Z,94819
2018-05-01T02:18:59.657Z,94817
2018-05-01T02:21:27.049Z,94820
2018-05-01T02:23:54.430Z,94821
2018-05-01T02:26:21.788Z,94816
2018-05-01T02:28:49.166Z,94827
2018-05-01T02:31:16.513Z,94820
2018-05-01T02:33:43.889Z,94816
2018-05-01T02:36:11.239Z,94810
2018-05-01T02:38:38.636Z,94816
2018-05-01T02:41:06.775Z,94815
2018-05-01T02:43:34.133Z,94814
2018-05-01T02:46:01.497Z,94813
2018-05-01T02:48:28.854Z,94811
2018-05-01T02:50:56.233Z,94810
2018-05-01T02:53:23.752Z,94805
2018-05-01T02:55:51.111Z,94808
2018-05-01T02:58:18.463Z,94805
2018-05-01T03:00:45.823Z,94804
2018-05-01T03:03:13.178Z,94802
2018-05-01T03:05:40.525Z,94805
2018-05-01T03:08:07.881Z,94804
2018-05-01T03:10:35.233Z,94798
2018-05-01T03:13:02.600Z,94803
2018-05-01T03:15:29.965Z,94818
2018-05-01T03:17:57.339Z,94803
2018-05-01T03:20:24.694Z,94816
2018-05-01T03:22:52.070Z,94817
2018-05-01T03:25:19.430Z,94820
2018-05-01T03:27:46.775Z,94817
2018-05-01T03:30:14.128Z,94808
2018-05-01T03:32:41.482Z,94812
2018-05-01T03:35:09.509Z,94819
2018-05-01T03:37:36.855Z,94819
2018-05-01T03:40:04.225Z,94815
2018-05-01T03:42:32.356Z,94816
2018-05-01T03:44:59.759Z,94827
2018-05-01T03:47:27.117Z,94821
2018-05-01T03:49:54.465Z,94826
2018-05-01T03:52:22.720Z,94830
2018-05-01T03:54:50.133Z,94833
2018-05-01T03:57:17.513Z,94824
2018-05-01T03:59:44.873Z,94841
2018-05-01T04:02:12.313Z,94839
2018-05-01T04:04:39.672Z,94844
2018-05-01T04:07:07.014Z,94842
2018-05-01T04:09:35.333Z,94844
2018-05-01T04:12:02.696Z,94851
2018-05-01T04:14:30.070Z,94851
2018-05-01T04:16:57.426Z,94846
2018-05-01T04:19:24.790Z,94854
2018-05-01T04:21:52.157Z,94858
2018-05-01T04:24:19.544Z,94855
2018-05-01T04:26:46.926Z,94849
2018-05-01T04:29:14.278Z,94847
2018-05-01T04:31:41.632Z,94847
2018-05-01T04:34:08.983Z,94854
2018-05-01T04:36:36.361Z,94867
2018-05-01T04:39:03.714Z,94862
2018-05-01T04:41:31.095Z,94867
2018-05-01T04:43:58.507Z,94876
2018-05-01T04:46:25.874Z,94886
2018-05-01T04:48:53.307Z,94889
2018-05-01T04:51:20.675Z,94882
2018-05-01T04:53:48.052Z,94900
2018-05-01T04:56:15.399Z,94904
2018-05-01T04:58:43.519Z,94917
2018-05-01T05:01:10.875Z,94917
2018-05-01T05:03:38.237Z,94915
2018-05-01T05:06:05.611Z,94918
2018-05-01T05:08:32.987Z,94918
2018-05-01T05:11:00.381Z,94925
2018-05-01T05:13:27.729Z,94922
2018-05-01T05:15:55.229Z,94931
2018-05-01T05:18:22.591Z,94919
2018-05-01T05:20:49.955Z,94911
2018-05-01T05:23:17.326Z,94909
2018-05-01T05:25:44.684Z,94919
2018-05-01T05:28:12.044Z,94909
2018-05-01T05:30:39.390Z,94911
2018-05-01T05:33:07.563Z,94918
2018-05-01T05:35:35.528Z,94912
2018-05-01T05:38:02.877Z,94912
2018-05-01T05:40:30.260Z,94915
2018-05-01T05:42:58.905Z,94926
2018-05-01T05:45:26.432Z,94911
2018-05-01T05:47:53.796Z,94908
2018-05-01T05:50:21.170Z,94905
2018-05-01T05:52:48.538Z,94918
2018-05-01T05:55:15.890Z,94919
2018-05-01T05:57:43.248Z,94918
2018-05-01T06:00:10.652Z,94928
2018-05-01T06:02:38.003Z,94934
2018-05-01T06:05:05.362Z,94935
2018-05-01T06:07:32.856Z,94947
2018-05-01T06:10:00.234Z,94946
2018-05-01T06:12:27.603Z,94947
2018-05-01T06:14:54.946Z,94954
2018-05-01T06:17:22.303Z,94960
2018-05-01T06:19:50.427Z,94951
2018-05-01T06:22:17.800Z,94962
2018-05-01T06:24:45.151Z,94959
2018-05-01T06:27:12.535Z,94970
2018-05-01T06:29:40.674Z,94960
2018-05-01T06:32:08.107Z,94968
2018-05-01T06:34:35.643Z,94972
2018-05-01T06:37:03.033Z,94984
2018-05-01T06:39:30.398Z,94982
2018-05-01T06:41:57.765Z,94987
2018-05-01T06:44:25.143Z,94987
2018-05-01T06:46:52.509Z,94990
2018-05-01T06:49:19.900Z,94991
2018-05-01T06:51:48.041Z,94989
2018-05-01T06:54:15.407Z,94984
2018-05-01T06:56:42.794Z,94984
2018-05-01T06:59:10.193Z,94976
2018-05-01T07:01:37.817Z,94972
2018-05-01T07:04:05.969Z,94964
2018-05-01T07:06:33.360Z,94970
2018-05-01T07:09:00.731Z,94984
2018-05-01T07:11:28.103Z,94987
2018-05-01T07:13:55.461Z,94999
2018-05-01T07:16:23.568Z,94990
2018-05-01T07:18:50.944Z,94989
2018-05-01T07:21:18.377Z,94991
2018-05-01T07:23:45.741Z,94984
2018-05-01T07:26:13.068Z,94982
2018-05-01T07:28:40.518Z,94990
2018-05-01T07:31:07.908Z,94984
2018-05-01T07:33:35.287Z,94998
2018-05-01T07:36:02.653Z,94989
2018-05-01T07:38:30.006Z,95003
2018-05-01T07:40:57.385Z,94999
2018-05-01T07:43:24.758Z,95001
2018-05-01T07:45:52.152Z,94991
2018-05-01T07:48:19.506Z,94979
2018-05-01T07:50:46.872Z,94990
2018-05-01T07:53:14.311Z,95006
2018-05-01T07:55:41.662Z,94998
2018-05-01T07:58:09.047Z,95002
2018-05-01T08:00:37.287Z,94995
2018-05-01T08:03:04.677Z,94995
2018-05-01T08:05:32.027Z,95006
2018-05-01T08:07:59.378Z,94990
2018-05-01T08:10:26.750Z,94988
2018-05-01T08:12:54.118Z,94989
2018-05-01T08:15:21.802Z,94996
2018-05-01T08:17:49.187Z,94983
2018-05-01T08:20:17.084Z,94983
2018-05-01T08:22:44.509Z,94991
2018-05-01T08:25:12.082Z,94994
2018-05-01T08:27:40.471Z,94990
2018-05-01T08:30:08.392Z,94998
2018-05-01T08:32:35.915Z,95003
2018-05-01T08:35:03.303Z,94990
2018-05-01T08:37:30.709Z,94985
2018-05-01T08:39:58.204Z,94974
2018-05-01T08:42:25.877Z,94969
2018-05-01T08:44:53.237Z,94971
2018-05-01T08:47:20.619Z,94981
2018-05-01T08:49:47.984Z,94984
2018-05-01T08:52:15.477Z,94998
2018-05-01T08:54:42.963Z,94992
2018-05-01T08:57:10.321Z,94990
2018-05-01T08:59:37.853Z,95006
2018-05-01T09:02:05.199Z,95004
2018-05-01T09:04:33.517Z,95011
2018-05-01T09:07:00.887Z,95033
2018-05-01T09:09:28.330Z,95029
2018-05-01T09:11:55.804Z,95038
2018-05-01T09:14:24.268Z,95030
2018-05-01T09:16:52.280Z,95030
2018-05-01T09:19:20.197Z,95028
2018-05-01T09:21:48.007Z,95033
2018-05-01T09:24:15.781Z,95031
2018-05-01T09:26:43.292Z,95033
2018-05-01T09:29:12.990Z,95037
2018-05-01T09:31:40.375Z,95044
2018-05-01T09:34:07.747Z,95047
2018-05-01T09:36:35.176Z,95043
2018-05-01T09:39:02.557Z,95046
2018-05-01T09:41:29.919Z,95037
2018-05-01T09:43:57.651Z,95038
2018-05-01T09:46:29.945Z,95045
2018-05-01T09:48:57.311Z,95054
2018-05-01T09:51:24.659Z,95055
2018-05-01T09:53:53.583Z,95067
2018-05-01T09:56:21.757Z,95072
2018-05-01T09:58:49.852Z,95076
2018-05-01T10:01:18.022Z,95066
2018-05-01T10:03:46.118Z,95061
2018-05-01T10:06:14.252Z,95071
2018-05-01T10:08:42.925Z,95045
2018-05-01T10:11:11.801Z,95046
2018-05-01T10:13:39.912Z,95048
2018-05-01T10:16:08.042Z,95064
2018-05-01T10:18:36.224Z,95061
2018-05-01T10:21:04.336Z,95070
2018-05-01T10:23:32.465Z,95067
2018-05-01T10:26:00.567Z,95064
2018-05-01T10:28:28.695Z,95068
2018-05-01T10:30:56.795Z,95060
2018-05-01T10:33:25.021Z,95070
2018-05-01T10:35:53.276Z,95070
2018-05-01T10:38:21.493Z,95077
2018-05-01T10:40:49.731Z,95072
2018-05-01T10:43:17.970Z,95061
2018-05-01T10:45:46.861Z,95080
2018-05-01T10:48:14.961Z,95068
2018-05-01T10:50:43.088Z,95067
2018-05-01T10:53:11.173Z,95078
2018-05-01T10:55:39.353Z,95076
2018-05-01T10:58:07.481Z,95067
2018-05-01T11:00:35.660Z,95066
2018-05-01T11:03:03.707Z,95067
2018-05-01T11:05:31.816Z,95058
2018-05-01T11:07:59.940Z,95057
2018-05-01T11:10:28.024Z,95062
2018-05-01T11:12:56.139Z,95052
2018-05-01T11:15:24.242Z,95051
2018-05-01T11:17:52.438Z,95056
2018-05-01T11:20:20.582Z,95057
2018-05-01T11:22:50.577Z,95068
2018-05-01T11:25:19.338Z,95073
2018-05-01T11:27:47.476Z,95067
2018-05-01T11:30:15.658Z,95073
2018-05-01T11:32:43.918Z,95064
2018-05-01T11:35:12.182Z,95066
2018-05-01T11:37:40.394Z,95075
2018-05-01T11:40:08.544Z,95071
2018-05-01T11:42:36.681Z,95085
2018-05-01T11:45:04.893Z,95083
2018-05-01T11:47:32.952Z,95078
2018-05-01T11:50:02.167Z,95081
2018-05-01T11:52:30.275Z,95074
2018-05-01T11:54:58.399Z,95082
2018-05-01T11:57:26.556Z,95084
2018-05-01T11:59:54.675Z,95085
2018-05-01T12:02:22.858Z,95086
2018-05-01T12:04:50.977Z,95084
2018-05-01T12:07:19.839Z,95081
2018-05-01T12:09:47.933Z,95086
2018-05-01T12:12:16.065Z,95080
2018-05-01T12:14:44.199Z,95073
2018-05-01T12:17:12.311Z,95058
2018-05-01T12:19:40.437Z,95074
2018-05-01T12:22:09.919Z,95076
2018-05-01T12:24:38.062Z,95082
2018-05-01T12:27:06.305Z,95073
2018-05-01T12:29:34.411Z,95069
2018-05-01T12:32:02.559Z,95075
2018-05-01T12:34:30.770Z,95064
2018-05-01T12:36:59.009Z,95069
2018-05-01T12:39:27.058Z,95069
2018-05-01T12:41:55.174Z,95072
2018-05-01T12:44:23.307Z,95071
2018-05-01T12:46:51.424Z,95068
2018-05-01T12:49:19.628Z,95063
2018-05-01T12:51:47.996Z,95064
2018-05-01T12:54:16.124Z,95060
2018-05-01T12:56:44.342Z,95057
2018-05-01T12:59:12.549Z,95056
2018-05-01T13:01:40.616Z,95055
2018-05-01T13:04:09.482Z,95050
2018-05-01T13:06:37.879Z,95037
2018-05-01T13:09:06.007Z,95036
2018-05-01T13:11:34.127Z,95034
2018-05-01T13:14:02.997Z,95030
2018-05-01T13:16:31.109Z,95039
2018-05-01T13:18:59.830Z,95039
2018-05-01T13:21:27.931Z,95031
2018-05-01T13:23:56.089Z,95032
2018-05-01T13:26:24.229Z,95036
2018-05-01T13:28:52.519Z,95029
2018-05-01T13:31:20.714Z,95024
2018-05-01T13:33:48.961Z,95029
2018-05-01T13:36:17.320Z,95018
2018-05-01T13:38:45.505Z,95025
2018-05-01T13:41:13.868Z,95009
2018-05-01T13:43:42.088Z,95001
2018-05-01T13:46:10.311Z,94997
2018-05-01T13:48:38.559Z,94991
2018-05-01T13:51:06.716Z,94987
2018-05-01T13:53:34.961Z,94990
2018-05-01T13:56:03.111Z,94991
2018-05-01T13:58:32.084Z,94987
2018-05-01T14:01:00.443Z,94980
2018-05-01T14:03:29.391Z,94983
2018-05-01T14:05:57.506Z,94983
2018-05-01T14:08:25.624Z,94980
2018-05-01T14:10:53.751Z,94985
2018-05-01T14:13:22.653Z,94987
2018-05-01T14:15:50.777Z,94982
2018-05-01T14:18:18.952Z,94977
2018-05-01T14:20:47.051Z,94980
2018-05-01T14:23:15.188Z,94973
2018-05-01T14:25:43.327Z,94984
2018-05-01T14:28:12.061Z,94979
2018-05-01T14:30:40.159Z,94977
2018-05-01T14:33:08.282Z,94987
2018-05-01T14:35:36.396Z,94990
2018-05-01T14:38:04.507Z,94981
2018-05-01T14:40:32.692Z,94987
2018-05-01T14:43:00.857Z,94980
2018-05-01T14:45:29.073Z,94990
2018-05-01T14:47:57.165Z,94975
2018-05-01T14:50:25.314Z,94985
2018-05-01T14:52:54.018Z,94989
2018-05-01T14:55:22.226Z,94990
2018-05-01T14:57:50.278Z,94994
2018-05-01T15:00:18.380Z,94994
2018-05-01T15:03:05.378Z,94990
2018-05-01T15:05:33.684Z,94988
2018-05-01T15:08:05.799Z,94982
2018-05-01T15:10:33.931Z,94984
2018-05-01T15:13:02.016Z,94981
2018-05-01T15:15:30.185Z,94976
2018-05-01T15:17:58.302Z,94979
2018-05-01T15:20:26.416Z,94978
2018-05-01T15:22:54.569Z,94990
2018-05-01T15:25:22.687Z,94975
2018-05-01T15:27:50.823Z,94978
2018-05-01T15:30:19.731Z,94970
2018-05-01T15:32:48.592Z,94970
2018-05-01T15:35:16.703Z,94973
2018-05-01T15:37:45.863Z,94979
2018-05-01T15:40:13.997Z,94975
2018-05-01T15:42:42.194Z,94982
2018-05-01T15:45:10.364Z,94978
2018-05-01T15:47:38.485Z,94975
2018-05-01T15:50:06.644Z,94972
2018-05-01T15:52:34.756Z,94971
2018-05-01T15:55:02.858Z,94961
2018-05-01T15:57:30.949Z,94970
2018-05-01T15:59:59.949Z,94956
2018-05-01T16:02:28.213Z,94967
2018-05-01T16:04:56.328Z,94974
2018-05-01T16:07:24.448Z,94970
2018-05-01T16:09:52.568Z,94972
2018-05-01T16:12:20.679Z,94965
2018-05-01T16:14:48.778Z,94963
2018-05-01T16:17:16.897Z,94951
2018-05-01T16:19:45.056Z,94963
2018-05-01T16:22:13.170Z,94962
2018-05-01T16:24:41.339Z,94966
2018-05-01T16:27:09.457Z,94969
2018-05-01T16:29:38.327Z,94966
2018-05-01T16:32:06.445Z,94969
2018-05-01T16:34:34.653Z,94973
2018-05-01T16:37:02.703Z,94977
2018-05-01T16:39:31.131Z,94974
2018-05-01T16:41:59.487Z,94967
2018-05-01T16:44:27.601Z,94971
2018-05-01T16:46:56.483Z,94963
2018-05-01T16:49:25.939Z,94975
2018-05-01T16:51:54.151Z,94969
2018-05-01T16:54:22.289Z,94965
2018-05-01T16:56:50.455Z,94957
2018-05-01T16:59:19.311Z,94967
2018-05-01T17:01:47.428Z,94974
2018-05-01T17:04:15.550Z,94974
2018-05-01T17:06:43.670Z,94979
2018-05-01T17:09:11.784Z,94978
2018-05-01T17:11:40.646Z,94979
2018-05-01T17:14:09.110Z,94973
2018-05-01T17:16:37.487Z,94978
2018-05-01T17:19:05.728Z,94975
2018-05-01T17:21:33.878Z,94990
2018-05-01T17:24:02.010Z,94997
2018-05-01T17:26:30.597Z,94991
2018-05-01T17:28:58.775Z,94989
2018-05-01T17:31:27.069Z,94988
2018-05-01T17:33:55.281Z,94981
2018-05-01T17:36:23.854Z,94984
2018-05-01T17:38:52.834Z,94977
2018-05-01T17:41:20.971Z,94992
2018-05-01T17:43:49.204Z,94989
2018-05-01T17:46:17.608Z,94992
2018-05-01T17:48:46.148Z,94997
2018-05-01T17:51:14.227Z,94997
2018-05-01T17:53:42.364Z,94989
2018-05-01T17:56:10.516Z,94994
2018-05-01T17:58:38.690Z,94997
2018-05-01T18:01:06.882Z,95003
2018-05-01T18:03:34.987Z,95001
2018-05-01T18:06:03.101Z,95003
2018-05-01T18:08:31.228Z,95005
2018-05-01T18:10:59.310Z,95005
2018-05-01T18:13:28.513Z,95010
2018-05-01T18:15:57.101Z,95000
2018-05-01T18:18:25.229Z,95011
2018-05-01T18:20:53.350Z,95014
2018-05-01T18:23:21.513Z,95020
2018-05-01T18:25:49.558Z,95014
2018-05-01T18:28:17.714Z,95025
2018-05-01T18:30:45.988Z,95043
2018-05-01T18:33:14.100Z,95042
2018-05-01T18:51:47.223Z,95045
2018-05-01T18:54:15.322Z,95049
2018-05-01T18:56:43.517Z,95044
2018-05-01T18:59:11.776Z,95051
2018-05-01T19:01:39.917Z,95033
2018-05-01T19:04:08.009Z,95043
2018-05-01T19:06:36.127Z,95044
2018-05-01T19:09:04.318Z,95049
2018-05-01T19:11:32.448Z,95050
2018-05-01T19:14:00.566Z,95053
2018-05-01T19:16:28.704Z,95053
2018-05-01T19:18:56.815Z,95052
2018-05-01T19:21:24.970Z,95055
2018-05-01T19:23:53.126Z,95054
2018-05-01T19:26:21.240Z,95057
2018-05-01T19:28:49.369Z,95061
2018-05-01T19:31:18.874Z,95057
2018-05-01T19:33:46.988Z,95055
2018-05-01T19:36:15.113Z,95054
2018-05-01T19:38:43.244Z,95048
2018-05-01T19:41:11.367Z,95047
2018-05-01T19:43:39.494Z,95060
2018-05-01T19:46:07.620Z,95050
2018-05-01T19:48:35.802Z,95045
2018-05-01T19:51:04.790Z,95042
2018-05-01T19:53:32.957Z,95048
2018-05-01T19:56:01.033Z,95051
2018-05-01T19:58:29.135Z,95040
2018-05-01T20:00:57.244Z,95047
2018-05-01T20:03:25.390Z,95038
2018-05-01T20:05:53.511Z,95036
2018-05-01T20:08:21.664Z,95047
2018-05-01T20:10:50.255Z,95047
2018-05-01T20:13:18.348Z,95040
2018-05-01T20:15:46.480Z,95037
2018-05-01T20:18:14.600Z,95049
2018-05-01T20:20:42.747Z,95044
2018-05-01T20:23:10.862Z,95046
2018-05-01T20:25:39.782Z,95042
2018-05-01T20:28:07.900Z,95053
2018-05-01T20:30:36.049Z,95050
2018-05-01T20:33:04.191Z,95046
2018-05-01T20:35:32.296Z,95046
2018-05-01T20:38:00.412Z,95050
2018-05-01T20:40:28.583Z,95056
2018-05-01T20:42:56.687Z,95056
2018-05-01T20:45:24.789Z,95048
2018-05-01T20:47:52.901Z,95054
2018-05-01T20:50:20.997Z,95039
2018-05-01T20:52:49.137Z,95047
2018-05-01T20:55:17.348Z,95052
2018-05-01T20:57:45.477Z,95049
2018-05-01T21:00:13.608Z,95048
2018-05-01T21:02:41.763Z,95051
2018-05-01T21:05:09.894Z,95049
2018-05-01T21:07:38.026Z,95050
2018-05-01T21:10:06.181Z,95055
2018-05-01T21:12:34.280Z,95053
2018-05-01T21:15:02.425Z,95054
2018-05-01T21:17:30.684Z,95053
2018-05-01T21:19:58.865Z,95062
2018-05-01T21:22:27.096Z,95062
2018-05-01T21:24:55.191Z,95068
2018-05-01T21:27:23.315Z,95058
2018-05-01T21:29:52.049Z,95063
2018-05-01T21:32:20.216Z,95056
2018-05-01T21:34:48.397Z,95061
2018-05-01T21:37:17.286Z,95063
2018-05-01T21:39:45.405Z,95059
2018-05-01T21:42:13.537Z,95057
2018-05-01T21:44:41.668Z,95059
2018-05-01T21:47:09.785Z,95059
2018-05-01T21:49:38.694Z,95048
2018-05-01T21:52:06.895Z,95046
2018-05-01T21:54:35.038Z,95054
2018-05-01T21:57:03.143Z,95060
2018-05-01T21:59:31.265Z,95055
2018-05-01T22:01:59.440Z,95053
2018-05-01T22:04:28.419Z,95053
2018-05-01T22:06:56.542Z,95059
2018-05-01T22:09:24.676Z,95060
2018-05-01T22:11:53.550Z,95060
2018-05-01T22:14:21.682Z,95062
2018-05-01T22:16:49.796Z,95063
2018-05-01T22:19:17.891Z,95065
2018-05-01T22:21:46.022Z,95056
2018-05-01T22:24:14.292Z,95052
2018-05-01T22:26:42.476Z,95052
2018-05-01T22:29:10.591Z,95056
2018-05-01T22:31:38.700Z,95063
2018-05-01T22:34:06.841Z,95059
2018-05-01T22:36:34.933Z,95055
2018-05-01T22:39:03.084Z,95058
2018-05-01T22:41:31.209Z,95050
2018-05-01T22:44:01.679Z,95052
2018-05-01T22:46:29.772Z,95043
2018-05-01T22:48:57.909Z,95050
2018-05-01T22:51:26.026Z,95050
2018-05-01T22:53:54.229Z,95051
2018-05-01T22:56:22.742Z,95052
2018-05-01T22:58:51.616Z,95044
2018-05-01T23:01:19.745Z,95047
2018-05-01T23:03:47.853Z,95046
2018-05-01T23:06:15.956Z,95038
2018-05-01T23:08:44.088Z,95037
2018-05-01T23:11:12.196Z,95030
2018-05-01T23:13:40.317Z,95032
2018-05-01T23:16:08.499Z,95026
2018-05-01T23:18:36.739Z,95030
2018-05-01T23:21:04.834Z,95041
2018-05-01T23:23:32.943Z,95027
2018-05-01T23:26:02.028Z,95030
2018-05-01T23:28:30.139Z,95031
2018-05-01T23:30:58.257Z,95031
2018-05-01T23:33:26.367Z,95031
2018-05-01T23:35:54.498Z,95028
2018-05-01T23:38:27.078Z,95035
2018-05-01T23:40:55.200Z,95033
2018-05-01T23:43:23.312Z,95026
2018-05-01T23:45:52.443Z,95036
2018-05-01T23:48:20.544Z,95028
2018-05-01T23:50:48.806Z,95031
2018-05-01T23:53:17.043Z,95033
2018-05-01T23:55:45.175Z,95034
2018-05-01T23:58:13.285Z,95040
